sensor_id;sensor_type;location;lat;lon;timestamp;P1;durP1;ratioP1;P2;durP2;ratioP2
38023;SDS011;23834;48.080;11.682;2022-08-27T00:02:23;3.77;;;3.47;;
38023;SDS011;23834;48.080;11.682;2022-08-27T00:04:48;3.60;;;3.40;;
38023;SDS011;23834;48.080;11.682;2022-08-27T00:07:13;6.00;;;3.27;;
38023;SDS011;23834;48.080;11.682;2022-08-27T00:09:39;4.23;;;3.93;;
38023;SDS011;23834;48.080;11.682;2022-08-27T00:12:04;3.77;;;3.47;;
38023;SDS011;23834;48.080;11.682;2022-08-27T00:14:30;3.57;;;3.27;;
38023;SDS011;23834;48.080;11.682;2022-08-27T00:16:55;3.67;;;3.37;;
38023;SDS011;23834;48.080;11.682;2022-08-27T00:19:21;3.40;;;3.10;;
38023;SDS011;23834;48.080;11.682;2022-08-27T00:21:46;3.40;;;3.20;;
38023;SDS011;23834;48.080;11.682;2022-08-27T00:24:11;3.80;;;3.50;;
38023;SDS011;23834;48.080;11.682;2022-08-27T00:26:37;3.57;;;3.30;;
38023;SDS011;23834;48.080;11.682;2022-08-27T00:29:03;3.47;;;3.27;;
38023;SDS011;23834;48.080;11.682;2022-08-27T00:31:28;3.60;;;3.30;;
38023;SDS011;23834;48.080;11.682;2022-08-27T00:33:54;3.50;;;3.30;;
38023;SDS011;23834;48.080;11.682;2022-08-27T00:36:19;3.80;;;3.60;;
38023;SDS011;23834;48.080;11.682;2022-08-27T00:38:44;3.97;;;3.77;;
38023;SDS011;23834;48.080;11.682;2022-08-27T00:41:10;3.83;;;3.53;;
38023;SDS011;23834;48.080;11.682;2022-08-27T00:43:52;3.00;;;2.80;;
38023;SDS011;23834;48.080;11.682;2022-08-27T00:46:20;3.70;;;3.40;;
38023;SDS011;23834;48.080;11.682;2022-08-27T00:48:47;3.97;;;3.67;;
38023;SDS011;23834;48.080;11.682;2022-08-27T00:51:12;3.73;;;3.43;;
38023;SDS011;23834;48.080;11.682;2022-08-27T00:53:38;3.67;;;3.27;;
38023;SDS011;23834;48.080;11.682;2022-08-27T00:56:06;3.90;;;3.60;;
38023;SDS011;23834;48.080;11.682;2022-08-27T00:58:33;3.80;;;3.50;;
38023;SDS011;23834;48.080;11.682;2022-08-27T01:01:00;4.07;;;3.77;;
38023;SDS011;23834;48.080;11.682;2022-08-27T01:03:25;3.73;;;3.40;;
38023;SDS011;23834;48.080;11.682;2022-08-27T01:05:51;3.80;;;3.50;;
38023;SDS011;23834;48.080;11.682;2022-08-27T01:08:18;2.93;;;2.73;;
38023;SDS011;23834;48.080;11.682;2022-08-27T01:10:44;3.23;;;3.03;;
38023;SDS011;23834;48.080;11.682;2022-08-27T01:13:11;3.37;;;3.10;;
38023;SDS011;23834;48.080;11.682;2022-08-27T01:15:37;3.37;;;3.17;;
38023;SDS011;23834;48.080;11.682;2022-08-27T01:18:04;3.63;;;3.33;;
38023;SDS011;23834;48.080;11.682;2022-08-27T01:20:34;4.03;;;3.60;;
38023;SDS011;23834;48.080;11.682;2022-08-27T01:23:03;3.57;;;3.37;;
38023;SDS011;23834;48.080;11.682;2022-08-27T01:25:33;3.17;;;2.97;;
38023;SDS011;23834;48.080;11.682;2022-08-27T01:27:59;3.60;;;3.30;;
38023;SDS011;23834;48.080;11.682;2022-08-27T01:30:25;3.53;;;3.23;;
38023;SDS011;23834;48.080;11.682;2022-08-27T01:32:51;3.97;;;3.23;;
38023;SDS011;23834;48.080;11.682;2022-08-27T01:35:16;3.43;;;3.13;;
38023;SDS011;23834;48.080;11.682;2022-08-27T01:37:43;3.53;;;3.20;;
38023;SDS011;23834;48.080;11.682;2022-08-27T01:40:09;4.17;;;3.80;;
38023;SDS011;23834;48.080;11.682;2022-08-27T01:42:36;3.13;;;2.93;;
38023;SDS011;23834;48.080;11.682;2022-08-27T01:45:06;3.90;;;3.50;;
38023;SDS011;23834;48.080;11.682;2022-08-27T01:47:32;3.80;;;3.50;;
38023;SDS011;23834;48.080;11.682;2022-08-27T01:49:58;3.50;;;3.30;;
38023;SDS011;23834;48.080;11.682;2022-08-27T01:52:25;3.67;;;3.37;;
38023;SDS011;23834;48.080;11.682;2022-08-27T01:54:50;3.77;;;3.47;;
38023;SDS011;23834;48.080;11.682;2022-08-27T01:57:16;3.57;;;3.33;;
38023;SDS011;23834;48.080;11.682;2022-08-27T01:59:41;3.20;;;3.00;;
38023;SDS011;23834;48.080;11.682;2022-08-27T02:02:07;3.60;;;3.30;;
38023;SDS011;23834;48.080;11.682;2022-08-27T02:04:32;3.50;;;3.30;;
38023;SDS011;23834;48.080;11.682;2022-08-27T02:06:58;3.73;;;3.40;;
38023;SDS011;23834;48.080;11.682;2022-08-27T02:09:23;3.27;;;3.07;;
38023;SDS011;23834;48.080;11.682;2022-08-27T02:11:49;3.80;;;3.50;;
38023;SDS011;23834;48.080;11.682;2022-08-27T02:14:14;3.70;;;3.40;;
38023;SDS011;23834;48.080;11.682;2022-08-27T02:16:39;3.67;;;3.40;;
38023;SDS011;23834;48.080;11.682;2022-08-27T02:19:06;3.93;;;3.63;;
38023;SDS011;23834;48.080;11.682;2022-08-27T02:21:32;3.33;;;3.03;;
38023;SDS011;23834;48.080;11.682;2022-08-27T02:23:57;3.50;;;3.30;;
38023;SDS011;23834;48.080;11.682;2022-08-27T02:26:22;3.20;;;3.00;;
38023;SDS011;23834;48.080;11.682;2022-08-27T02:28:47;3.23;;;3.03;;
38023;SDS011;23834;48.080;11.682;2022-08-27T02:31:12;3.53;;;3.20;;
38023;SDS011;23834;48.080;11.682;2022-08-27T02:33:38;3.60;;;3.30;;
38023;SDS011;23834;48.080;11.682;2022-08-27T02:36:03;3.10;;;2.90;;
38023;SDS011;23834;48.080;11.682;2022-08-27T02:38:28;3.43;;;3.23;;
38023;SDS011;23834;48.080;11.682;2022-08-27T02:40:54;3.20;;;3.00;;
38023;SDS011;23834;48.080;11.682;2022-08-27T02:43:19;3.73;;;3.43;;
38023;SDS011;23834;48.080;11.682;2022-08-27T02:45:44;3.57;;;3.27;;
38023;SDS011;23834;48.080;11.682;2022-08-27T02:48:10;3.40;;;3.10;;
38023;SDS011;23834;48.080;11.682;2022-08-27T02:50:35;3.63;;;3.33;;
38023;SDS011;23834;48.080;11.682;2022-08-27T02:53:01;3.57;;;3.30;;
38023;SDS011;23834;48.080;11.682;2022-08-27T02:55:27;3.13;;;2.93;;
38023;SDS011;23834;48.080;11.682;2022-08-27T02:57:52;3.07;;;2.87;;
38023;SDS011;23834;48.080;11.682;2022-08-27T03:00:17;3.30;;;3.10;;
38023;SDS011;23834;48.080;11.682;2022-08-27T03:02:44;3.53;;;3.23;;
38023;SDS011;23834;48.080;11.682;2022-08-27T03:05:10;3.37;;;3.17;;
38023;SDS011;23834;48.080;11.682;2022-08-27T03:07:35;3.20;;;3.00;;
38023;SDS011;23834;48.080;11.682;2022-08-27T03:10:02;3.70;;;3.50;;
38023;SDS011;23834;48.080;11.682;2022-08-27T03:12:27;3.23;;;2.93;;
38023;SDS011;23834;48.080;11.682;2022-08-27T03:14:53;3.90;;;3.60;;
38023;SDS011;23834;48.080;11.682;2022-08-27T03:17:18;4.30;;;3.37;;
38023;SDS011;23834;48.080;11.682;2022-08-27T03:20:02;3.70;;;3.40;;
38023;SDS011;23834;48.080;11.682;2022-08-27T03:22:28;3.53;;;3.23;;
38023;SDS011;23834;48.080;11.682;2022-08-27T03:24:53;3.03;;;2.83;;
38023;SDS011;23834;48.080;11.682;2022-08-27T03:27:19;3.43;;;3.13;;
38023;SDS011;23834;48.080;11.682;2022-08-27T03:29:44;3.80;;;3.50;;
38023;SDS011;23834;48.080;11.682;2022-08-27T03:32:09;3.50;;;3.30;;
38023;SDS011;23834;48.080;11.682;2022-08-27T03:34:35;3.70;;;3.43;;
38023;SDS011;23834;48.080;11.682;2022-08-27T03:37:00;3.57;;;3.37;;
38023;SDS011;23834;48.080;11.682;2022-08-27T03:39:26;3.30;;;3.10;;
38023;SDS011;23834;48.080;11.682;2022-08-27T03:41:51;3.60;;;3.30;;
38023;SDS011;23834;48.080;11.682;2022-08-27T03:44:16;3.03;;;2.83;;
38023;SDS011;23834;48.080;11.682;2022-08-27T03:46:42;3.83;;;3.53;;
38023;SDS011;23834;48.080;11.682;2022-08-27T03:49:08;3.00;;;2.80;;
38023;SDS011;23834;48.080;11.682;2022-08-27T03:51:33;3.30;;;3.10;;
38023;SDS011;23834;48.080;11.682;2022-08-27T03:53:58;3.23;;;3.03;;
38023;SDS011;23834;48.080;11.682;2022-08-27T03:56:23;3.43;;;3.13;;
38023;SDS011;23834;48.080;11.682;2022-08-27T03:58:49;3.77;;;3.50;;
38023;SDS011;23834;48.080;11.682;2022-08-27T04:01:14;3.53;;;3.33;;
38023;SDS011;23834;48.080;11.682;2022-08-27T04:03:40;3.13;;;2.93;;
38023;SDS011;23834;48.080;11.682;2022-08-27T04:06:06;3.80;;;3.50;;
38023;SDS011;23834;48.080;11.682;2022-08-27T04:08:31;3.20;;;3.00;;
38023;SDS011;23834;48.080;11.682;2022-08-27T04:10:57;3.23;;;3.03;;
38023;SDS011;23834;48.080;11.682;2022-08-27T04:13:22;3.20;;;3.00;;
38023;SDS011;23834;48.080;11.682;2022-08-27T04:15:48;3.60;;;3.30;;
38023;SDS011;23834;48.080;11.682;2022-08-27T04:18:14;3.37;;;3.17;;
38023;SDS011;23834;48.080;11.682;2022-08-27T04:20:41;3.33;;;3.13;;
38023;SDS011;23834;48.080;11.682;2022-08-27T04:23:06;3.40;;;3.10;;
38023;SDS011;23834;48.080;11.682;2022-08-27T04:25:31;3.80;;;3.50;;
38023;SDS011;23834;48.080;11.682;2022-08-27T04:27:57;3.73;;;3.33;;
38023;SDS011;23834;48.080;11.682;2022-08-27T04:30:22;3.70;;;3.40;;
38023;SDS011;23834;48.080;11.682;2022-08-27T04:32:48;3.27;;;3.07;;
38023;SDS011;23834;48.080;11.682;2022-08-27T04:35:13;4.60;;;3.30;;
38023;SDS011;23834;48.080;11.682;2022-08-27T04:37:38;3.50;;;3.30;;
38023;SDS011;23834;48.080;11.682;2022-08-27T04:40:04;3.50;;;3.20;;
38023;SDS011;23834;48.080;11.682;2022-08-27T04:42:30;3.40;;;3.10;;
38023;SDS011;23834;48.080;11.682;2022-08-27T04:44:55;3.20;;;3.00;;
38023;SDS011;23834;48.080;11.682;2022-08-27T04:47:20;2.70;;;2.60;;
38023;SDS011;23834;48.080;11.682;2022-08-27T04:49:45;3.63;;;3.33;;
38023;SDS011;23834;48.080;11.682;2022-08-27T04:52:11;3.30;;;2.93;;
38023;SDS011;23834;48.080;11.682;2022-08-27T04:54:36;3.17;;;2.93;;
38023;SDS011;23834;48.080;11.682;2022-08-27T04:57:02;3.30;;;3.10;;
38023;SDS011;23834;48.080;11.682;2022-08-27T04:59:28;3.60;;;3.30;;
38023;SDS011;23834;48.080;11.682;2022-08-27T05:01:53;3.50;;;3.30;;
38023;SDS011;23834;48.080;11.682;2022-08-27T05:04:19;3.57;;;3.27;;
38023;SDS011;23834;48.080;11.682;2022-08-27T05:06:44;3.20;;;3.00;;
38023;SDS011;23834;48.080;11.682;2022-08-27T05:09:11;3.30;;;3.10;;
38023;SDS011;23834;48.080;11.682;2022-08-27T05:11:37;3.40;;;3.20;;
38023;SDS011;23834;48.080;11.682;2022-08-27T05:14:06;3.40;;;3.20;;
38023;SDS011;23834;48.080;11.682;2022-08-27T05:16:31;3.20;;;3.00;;
38023;SDS011;23834;48.080;11.682;2022-08-27T05:18:57;3.10;;;2.80;;
38023;SDS011;23834;48.080;11.682;2022-08-27T05:21:28;3.00;;;2.90;;
38023;SDS011;23834;48.080;11.682;2022-08-27T05:23:56;3.47;;;3.27;;
38023;SDS011;23834;48.080;11.682;2022-08-27T05:26:22;3.43;;;3.23;;
38023;SDS011;23834;48.080;11.682;2022-08-27T05:28:47;2.93;;;2.80;;
38023;SDS011;23834;48.080;11.682;2022-08-27T05:31:13;3.20;;;2.90;;
38023;SDS011;23834;48.080;11.682;2022-08-27T05:33:39;3.50;;;3.20;;
38023;SDS011;23834;48.080;11.682;2022-08-27T05:36:06;3.07;;;2.87;;
38023;SDS011;23834;48.080;11.682;2022-08-27T05:38:32;2.90;;;2.70;;
38023;SDS011;23834;48.080;11.682;2022-08-27T05:41:04;3.13;;;2.90;;
38023;SDS011;23834;48.080;11.682;2022-08-27T05:43:30;2.90;;;2.70;;
38023;SDS011;23834;48.080;11.682;2022-08-27T05:45:56;2.87;;;2.67;;
38023;SDS011;23834;48.080;11.682;2022-08-27T05:48:21;2.80;;;2.60;;
38023;SDS011;23834;48.080;11.682;2022-08-27T05:50:46;2.70;;;2.60;;
38023;SDS011;23834;48.080;11.682;2022-08-27T05:53:12;2.77;;;2.57;;
38023;SDS011;23834;48.080;11.682;2022-08-27T05:55:37;2.60;;;2.50;;
38023;SDS011;23834;48.080;11.682;2022-08-27T05:58:03;2.73;;;2.63;;
38023;SDS011;23834;48.080;11.682;2022-08-27T06:00:28;3.10;;;2.90;;
38023;SDS011;23834;48.080;11.682;2022-08-27T06:03:12;3.17;;;2.97;;
38023;SDS011;23834;48.080;11.682;2022-08-27T06:05:37;2.50;;;2.40;;
38023;SDS011;23834;48.080;11.682;2022-08-27T06:08:03;3.13;;;2.93;;
38023;SDS011;23834;48.080;11.682;2022-08-27T06:10:28;2.70;;;2.50;;
38023;SDS011;23834;48.080;11.682;2022-08-27T06:12:53;2.60;;;2.50;;
38023;SDS011;23834;48.080;11.682;2022-08-27T06:15:18;2.80;;;2.70;;
38023;SDS011;23834;48.080;11.682;2022-08-27T06:17:44;2.90;;;2.70;;
38023;SDS011;23834;48.080;11.682;2022-08-27T06:20:09;3.00;;;2.80;;
38023;SDS011;23834;48.080;11.682;2022-08-27T06:22:34;3.00;;;2.80;;
38023;SDS011;23834;48.080;11.682;2022-08-27T06:25:00;2.30;;;2.20;;
38023;SDS011;23834;48.080;11.682;2022-08-27T06:27:25;2.93;;;2.73;;
38023;SDS011;23834;48.080;11.682;2022-08-27T06:29:50;2.30;;;2.20;;
38023;SDS011;23834;48.080;11.682;2022-08-27T06:32:15;2.47;;;2.37;;
38023;SDS011;23834;48.080;11.682;2022-08-27T06:34:40;2.60;;;2.50;;
38023;SDS011;23834;48.080;11.682;2022-08-27T06:37:06;3.70;;;2.70;;
38023;SDS011;23834;48.080;11.682;2022-08-27T06:39:31;2.80;;;2.60;;
38023;SDS011;23834;48.080;11.682;2022-08-27T06:41:57;2.50;;;2.40;;
38023;SDS011;23834;48.080;11.682;2022-08-27T06:44:22;2.57;;;2.37;;
38023;SDS011;23834;48.080;11.682;2022-08-27T06:46:48;2.07;;;1.97;;
38023;SDS011;23834;48.080;11.682;2022-08-27T06:49:14;2.80;;;2.60;;
38023;SDS011;23834;48.080;11.682;2022-08-27T06:51:39;2.70;;;2.50;;
38023;SDS011;23834;48.080;11.682;2022-08-27T06:54:08;2.63;;;2.53;;
38023;SDS011;23834;48.080;11.682;2022-08-27T06:56:33;2.87;;;2.67;;
38023;SDS011;23834;48.080;11.682;2022-08-27T06:59:00;2.80;;;2.60;;
38023;SDS011;23834;48.080;11.682;2022-08-27T07:01:27;2.77;;;2.57;;
38023;SDS011;23834;48.080;11.682;2022-08-27T07:03:53;2.30;;;2.20;;
38023;SDS011;23834;48.080;11.682;2022-08-27T07:06:19;2.30;;;2.20;;
38023;SDS011;23834;48.080;11.682;2022-08-27T07:08:44;2.90;;;2.70;;
38023;SDS011;23834;48.080;11.682;2022-08-27T07:11:11;2.70;;;2.50;;
38023;SDS011;23834;48.080;11.682;2022-08-27T07:13:37;2.67;;;2.50;;
38023;SDS011;23834;48.080;11.682;2022-08-27T07:16:03;2.50;;;2.30;;
38023;SDS011;23834;48.080;11.682;2022-08-27T07:18:29;2.47;;;2.27;;
38023;SDS011;23834;48.080;11.682;2022-08-27T07:20:54;2.37;;;2.27;;
38023;SDS011;23834;48.080;11.682;2022-08-27T07:23:20;2.53;;;2.43;;
38023;SDS011;23834;48.080;11.682;2022-08-27T07:25:45;2.27;;;2.17;;
38023;SDS011;23834;48.080;11.682;2022-08-27T07:28:11;2.43;;;2.27;;
38023;SDS011;23834;48.080;11.682;2022-08-27T07:30:36;2.20;;;2.10;;
38023;SDS011;23834;48.080;11.682;2022-08-27T07:33:01;2.23;;;2.13;;
38023;SDS011;23834;48.080;11.682;2022-08-27T07:35:27;2.37;;;2.20;;
38023;SDS011;23834;48.080;11.682;2022-08-27T07:37:52;2.50;;;2.40;;
38023;SDS011;23834;48.080;11.682;2022-08-27T07:40:17;2.23;;;2.13;;
38023;SDS011;23834;48.080;11.682;2022-08-27T07:42:42;2.40;;;2.30;;
38023;SDS011;23834;48.080;11.682;2022-08-27T07:45:27;2.23;;;2.13;;
38023;SDS011;23834;48.080;11.682;2022-08-27T07:47:52;2.43;;;2.33;;
38023;SDS011;23834;48.080;11.682;2022-08-27T07:50:18;2.57;;;2.47;;
38023;SDS011;23834;48.080;11.682;2022-08-27T07:52:43;2.33;;;2.23;;
38023;SDS011;23834;48.080;11.682;2022-08-27T07:55:09;2.23;;;2.13;;
38023;SDS011;23834;48.080;11.682;2022-08-27T07:57:35;2.40;;;2.30;;
38023;SDS011;23834;48.080;11.682;2022-08-27T08:00:00;2.30;;;2.20;;
38023;SDS011;23834;48.080;11.682;2022-08-27T08:02:25;2.30;;;2.20;;
38023;SDS011;23834;48.080;11.682;2022-08-27T08:04:51;2.43;;;2.30;;
38023;SDS011;23834;48.080;11.682;2022-08-27T08:07:16;2.40;;;2.30;;
38023;SDS011;23834;48.080;11.682;2022-08-27T08:09:42;2.50;;;2.37;;
38023;SDS011;23834;48.080;11.682;2022-08-27T08:12:07;2.17;;;2.07;;
38023;SDS011;23834;48.080;11.682;2022-08-27T08:14:32;2.60;;;2.50;;
38023;SDS011;23834;48.080;11.682;2022-08-27T08:16:58;2.10;;;2.00;;
38023;SDS011;23834;48.080;11.682;2022-08-27T08:19:24;2.33;;;2.23;;
38023;SDS011;23834;48.080;11.682;2022-08-27T08:21:49;2.90;;;2.70;;
38023;SDS011;23834;48.080;11.682;2022-08-27T08:24:17;2.17;;;2.07;;
38023;SDS011;23834;48.080;11.682;2022-08-27T08:26:42;3.00;;;2.80;;
38023;SDS011;23834;48.080;11.682;2022-08-27T08:29:08;2.70;;;2.50;;
38023;SDS011;23834;48.080;11.682;2022-08-27T08:31:33;3.07;;;2.77;;
38023;SDS011;23834;48.080;11.682;2022-08-27T08:33:59;2.30;;;2.20;;
38023;SDS011;23834;48.080;11.682;2022-08-27T08:36:24;2.47;;;2.30;;
38023;SDS011;23834;48.080;11.682;2022-08-27T08:38:49;2.83;;;2.33;;
38023;SDS011;23834;48.080;11.682;2022-08-27T08:41:36;2.70;;;2.50;;
38023;SDS011;23834;48.080;11.682;2022-08-27T08:44:05;2.50;;;2.30;;
38023;SDS011;23834;48.080;11.682;2022-08-27T08:46:34;2.50;;;2.30;;
38023;SDS011;23834;48.080;11.682;2022-08-27T08:49:08;2.80;;;2.60;;
38023;SDS011;23834;48.080;11.682;2022-08-27T08:51:38;2.27;;;2.17;;
38023;SDS011;23834;48.080;11.682;2022-08-27T08:54:15;2.27;;;2.07;;
38023;SDS011;23834;48.080;11.682;2022-08-27T08:59:08;2.85;;;2.65;;
38023;SDS011;23834;48.080;11.682;2022-08-27T09:01:35;2.80;;;2.60;;
38023;SDS011;23834;48.080;11.682;2022-08-27T09:04:04;3.00;;;2.80;;
38023;SDS011;23834;48.080;11.682;2022-08-27T09:06:34;2.67;;;2.47;;
38023;SDS011;23834;48.080;11.682;2022-08-27T09:09:05;2.53;;;2.40;;
38023;SDS011;23834;48.080;11.682;2022-08-27T09:11:39;2.90;;;2.70;;
38023;SDS011;23834;48.080;11.682;2022-08-27T09:16:41;2.80;;;2.60;;
38023;SDS011;23834;48.080;11.682;2022-08-27T09:19:07;2.60;;;2.40;;
38023;SDS011;23834;48.080;11.682;2022-08-27T09:21:35;2.90;;;2.70;;
38023;SDS011;23834;48.080;11.682;2022-08-27T09:24:07;2.60;;;2.40;;
38023;SDS011;23834;48.080;11.682;2022-08-27T09:26:37;3.20;;;3.00;;
38023;SDS011;23834;48.080;11.682;2022-08-27T09:29:04;2.97;;;2.77;;
38023;SDS011;23834;48.080;11.682;2022-08-27T09:31:40;4.13;;;3.83;;
38023;SDS011;23834;48.080;11.682;2022-08-27T09:34:05;3.60;;;3.40;;
38023;SDS011;23834;48.080;11.682;2022-08-27T09:36:30;4.00;;;3.70;;
38023;SDS011;23834;48.080;11.682;2022-08-27T09:38:56;4.00;;;3.70;;
38023;SDS011;23834;48.080;11.682;2022-08-27T09:41:24;3.97;;;3.37;;
38023;SDS011;23834;48.080;11.682;2022-08-27T09:44:06;4.30;;;3.73;;
38023;SDS011;23834;48.080;11.682;2022-08-27T09:46:32;4.40;;;4.10;;
38023;SDS011;23834;48.080;11.682;2022-08-27T09:49:07;4.43;;;3.90;;
38023;SDS011;23834;48.080;11.682;2022-08-27T09:51:33;4.00;;;3.70;;
38023;SDS011;23834;48.080;11.682;2022-08-27T09:54:00;5.97;;;4.00;;
38023;SDS011;23834;48.080;11.682;2022-08-27T09:56:33;3.80;;;3.50;;
38023;SDS011;23834;48.080;11.682;2022-08-27T09:58:59;3.67;;;3.47;;
38023;SDS011;23834;48.080;11.682;2022-08-27T10:01:27;4.50;;;4.10;;
38023;SDS011;23834;48.080;11.682;2022-08-27T10:04:07;3.80;;;3.60;;
38023;SDS011;23834;48.080;11.682;2022-08-27T10:06:33;5.63;;;3.80;;
38023;SDS011;23834;48.080;11.682;2022-08-27T10:09:07;4.60;;;4.20;;
38023;SDS011;23834;48.080;11.682;2022-08-27T10:11:35;3.90;;;3.60;;
38023;SDS011;23834;48.080;11.682;2022-08-27T10:16:35;4.50;;;4.13;;
38023;SDS011;23834;48.080;11.682;2022-08-27T10:21:36;4.20;;;3.90;;
38023;SDS011;23834;48.080;11.682;2022-08-27T10:24:19;4.50;;;4.10;;
38023;SDS011;23834;48.080;11.682;2022-08-27T10:34:33;4.50;;;4.10;;
38023;SDS011;23834;48.080;11.682;2022-08-27T10:37:19;4.70;;;4.30;;
38023;SDS011;23834;48.080;11.682;2022-08-27T10:39:48;4.80;;;4.23;;
38023;SDS011;23834;48.080;11.682;2022-08-27T10:42:19;4.10;;;3.70;;
38023;SDS011;23834;48.080;11.682;2022-08-27T10:45:01;4.13;;;3.83;;
38023;SDS011;23834;48.080;11.682;2022-08-27T10:55:22;4.47;;;4.07;;
38023;SDS011;23834;48.080;11.682;2022-08-27T11:00:38;4.77;;;4.17;;
38023;SDS011;23834;48.080;11.682;2022-08-27T11:03:06;4.30;;;4.00;;
38023;SDS011;23834;48.080;11.682;2022-08-27T11:05:42;4.50;;;3.97;;
38023;SDS011;23834;48.080;11.682;2022-08-27T11:08:10;4.40;;;4.00;;
38023;SDS011;23834;48.080;11.682;2022-08-27T11:10:39;4.97;;;4.57;;
38023;SDS011;23834;48.080;11.682;2022-08-27T11:13:08;4.70;;;4.30;;
38023;SDS011;23834;48.080;11.682;2022-08-27T11:15:35;4.73;;;4.33;;
38023;SDS011;23834;48.080;11.682;2022-08-27T11:18:03;4.90;;;4.30;;
38023;SDS011;23834;48.080;11.682;2022-08-27T11:20:30;4.70;;;4.20;;
38023;SDS011;23834;48.080;11.682;2022-08-27T11:28:10;5.23;;;4.70;;
38023;SDS011;23834;48.080;11.682;2022-08-27T11:30:40;4.60;;;4.30;;
38023;SDS011;23834;48.080;11.682;2022-08-27T11:35:37;5.00;;;4.50;;
38023;SDS011;23834;48.080;11.682;2022-08-27T11:43:17;4.67;;;4.27;;
38023;SDS011;23834;48.080;11.682;2022-08-27T11:45:57;6.10;;;4.63;;
38023;SDS011;23834;48.080;11.682;2022-08-27T11:48:27;4.40;;;4.10;;
38023;SDS011;23834;48.080;11.682;2022-08-27T11:53:29;5.03;;;4.50;;
38023;SDS011;23834;48.080;11.682;2022-08-27T11:55:54;5.00;;;4.50;;
38023;SDS011;23834;48.080;11.682;2022-08-27T12:00:46;4.60;;;4.07;;
38023;SDS011;23834;48.080;11.682;2022-08-27T12:05:44;4.60;;;4.20;;
38023;SDS011;23834;48.080;11.682;2022-08-27T12:13:21;4.37;;;3.90;;
38023;SDS011;23834;48.080;11.682;2022-08-27T12:16:09;5.13;;;3.90;;
38023;SDS011;23834;48.080;11.682;2022-08-27T12:18:58;4.87;;;4.17;;
38023;SDS011;23834;48.080;11.682;2022-08-27T12:24:02;4.60;;;4.20;;
38023;SDS011;23834;48.080;11.682;2022-08-27T12:32:04;4.40;;;4.10;;
38023;SDS011;23834;48.080;11.682;2022-08-27T12:34:30;5.20;;;4.70;;
38023;SDS011;23834;48.080;11.682;2022-08-27T12:36:57;4.10;;;3.80;;
38023;SDS011;23834;48.080;11.682;2022-08-27T12:39:26;4.00;;;3.70;;
38023;SDS011;23834;48.080;11.682;2022-08-27T12:41:52;5.30;;;4.00;;
38023;SDS011;23834;48.080;11.682;2022-08-27T12:46:51;4.30;;;4.00;;
38023;SDS011;23834;48.080;11.682;2022-08-27T12:49:17;4.03;;;3.63;;
38023;SDS011;23834;48.080;11.682;2022-08-27T12:51:43;4.10;;;3.70;;
38023;SDS011;23834;48.080;11.682;2022-08-27T12:59:35;3.87;;;3.57;;
38023;SDS011;23834;48.080;11.682;2022-08-27T13:04:29;3.90;;;3.60;;
38023;SDS011;23834;48.080;11.682;2022-08-27T13:06:55;4.20;;;3.80;;
38023;SDS011;23834;48.080;11.682;2022-08-27T13:09:29;4.30;;;3.90;;
38023;SDS011;23834;48.080;11.682;2022-08-27T13:11:55;3.50;;;3.30;;
38023;SDS011;23834;48.080;11.682;2022-08-27T13:14:22;4.20;;;3.90;;
38023;SDS011;23834;48.080;11.682;2022-08-27T13:16:51;4.10;;;3.70;;
38023;SDS011;23834;48.080;11.682;2022-08-27T13:19:24;4.50;;;4.07;;
38023;SDS011;23834;48.080;11.682;2022-08-27T13:21:50;3.93;;;3.63;;
38023;SDS011;23834;48.080;11.682;2022-08-27T13:24:19;5.97;;;3.47;;
38023;SDS011;23834;48.080;11.682;2022-08-27T13:26:47;3.90;;;3.60;;
38023;SDS011;23834;48.080;11.682;2022-08-27T13:29:12;3.80;;;3.50;;
38023;SDS011;23834;48.080;11.682;2022-08-27T13:31:38;3.87;;;3.47;;
38023;SDS011;23834;48.080;11.682;2022-08-27T13:34:04;4.13;;;3.83;;
38023;SDS011;23834;48.080;11.682;2022-08-27T13:36:34;4.00;;;3.70;;
38023;SDS011;23834;48.080;11.682;2022-08-27T13:39:00;4.07;;;3.67;;
38023;SDS011;23834;48.080;11.682;2022-08-27T13:43:51;4.55;;;3.90;;
38023;SDS011;23834;48.080;11.682;2022-08-27T13:46:20;3.70;;;3.40;;
38023;SDS011;23834;48.080;11.682;2022-08-27T13:48:47;4.10;;;3.80;;
38023;SDS011;23834;48.080;11.682;2022-08-27T13:51:13;4.27;;;3.97;;
38023;SDS011;23834;48.080;11.682;2022-08-27T13:53:43;3.70;;;3.47;;
38023;SDS011;23834;48.080;11.682;2022-08-27T13:56:33;4.03;;;3.60;;
38023;SDS011;23834;48.080;11.682;2022-08-27T14:01:52;3.87;;;3.40;;
38023;SDS011;23834;48.080;11.682;2022-08-27T14:04:25;3.30;;;3.10;;
38023;SDS011;23834;48.080;11.682;2022-08-27T14:06:51;3.73;;;3.43;;
38023;SDS011;23834;48.080;11.682;2022-08-27T14:09:18;3.90;;;3.60;;
38023;SDS011;23834;48.080;11.682;2022-08-27T14:11:44;3.60;;;3.30;;
38023;SDS011;23834;48.080;11.682;2022-08-27T14:14:09;4.77;;;4.07;;
38023;SDS011;23834;48.080;11.682;2022-08-27T14:16:35;3.50;;;3.20;;
38023;SDS011;23834;48.080;11.682;2022-08-27T14:19:43;3.33;;;3.10;;
38023;SDS011;23834;48.080;11.682;2022-08-27T14:21:49;3.33;;;3.13;;
38023;SDS011;23834;48.080;11.682;2022-08-27T14:24:14;3.50;;;3.20;;
38023;SDS011;23834;48.080;11.682;2022-08-27T14:26:39;3.53;;;3.23;;
38023;SDS011;23834;48.080;11.682;2022-08-27T14:29:05;4.67;;;3.40;;
38023;SDS011;23834;48.080;11.682;2022-08-27T14:31:30;3.60;;;3.30;;
38023;SDS011;23834;48.080;11.682;2022-08-27T14:33:55;3.80;;;3.50;;
38023;SDS011;23834;48.080;11.682;2022-08-27T14:36:21;3.57;;;3.27;;
38023;SDS011;23834;48.080;11.682;2022-08-27T14:38:47;3.53;;;3.30;;
38023;SDS011;23834;48.080;11.682;2022-08-27T14:41:13;3.53;;;3.23;;
38023;SDS011;23834;48.080;11.682;2022-08-27T14:43:38;3.57;;;3.27;;
38023;SDS011;23834;48.080;11.682;2022-08-27T14:46:05;3.80;;;3.50;;
38023;SDS011;23834;48.080;11.682;2022-08-27T14:48:31;3.33;;;3.13;;
38023;SDS011;23834;48.080;11.682;2022-08-27T14:50:58;3.60;;;2.93;;
38023;SDS011;23834;48.080;11.682;2022-08-27T14:53:23;3.30;;;3.10;;
38023;SDS011;23834;48.080;11.682;2022-08-27T14:55:49;3.60;;;3.30;;
38023;SDS011;23834;48.080;11.682;2022-08-27T14:58:15;3.73;;;3.43;;
38023;SDS011;23834;48.080;11.682;2022-08-27T15:00:40;3.60;;;3.30;;
38023;SDS011;23834;48.080;11.682;2022-08-27T15:03:08;4.20;;;3.33;;
38023;SDS011;23834;48.080;11.682;2022-08-27T15:05:33;3.40;;;3.20;;
38023;SDS011;23834;48.080;11.682;2022-08-27T15:07:58;3.60;;;3.30;;
38023;SDS011;23834;48.080;11.682;2022-08-27T15:10:24;2.73;;;2.60;;
38023;SDS011;23834;48.080;11.682;2022-08-27T15:12:49;3.27;;;3.07;;
38023;SDS011;23834;48.080;11.682;2022-08-27T15:15:15;3.70;;;3.43;;
38023;SDS011;23834;48.080;11.682;2022-08-27T15:17:40;3.13;;;2.93;;
38023;SDS011;23834;48.080;11.682;2022-08-27T15:20:07;3.20;;;3.00;;
38023;SDS011;23834;48.080;11.682;2022-08-27T15:22:32;3.30;;;3.10;;
38023;SDS011;23834;48.080;11.682;2022-08-27T15:24:58;3.17;;;2.97;;
38023;SDS011;23834;48.080;11.682;2022-08-27T15:27:24;3.20;;;3.00;;
38023;SDS011;23834;48.080;11.682;2022-08-27T15:29:49;3.60;;;3.30;;
38023;SDS011;23834;48.080;11.682;2022-08-27T15:32:34;3.03;;;2.80;;
38023;SDS011;23834;48.080;11.682;2022-08-27T15:35:00;3.43;;;3.13;;
38023;SDS011;23834;48.080;11.682;2022-08-27T15:37:28;3.07;;;2.87;;
38023;SDS011;23834;48.080;11.682;2022-08-27T15:39:54;3.70;;;3.30;;
38023;SDS011;23834;48.080;11.682;2022-08-27T15:42:19;3.30;;;3.00;;
38023;SDS011;23834;48.080;11.682;2022-08-27T15:44:52;3.03;;;2.83;;
38023;SDS011;23834;48.080;11.682;2022-08-27T15:47:17;3.27;;;3.07;;
38023;SDS011;23834;48.080;11.682;2022-08-27T15:49:43;3.80;;;3.43;;
38023;SDS011;23834;48.080;11.682;2022-08-27T15:52:09;3.33;;;3.03;;